createdAt,value
2018-03-07T00:00:02.909Z,1.2
2018-03-07T00:15:03.262Z,1.1
2018-03-07T00:30:02.689Z,0.9
2018-03-07T00:45:02.932Z,1
2018-03-07T01:00:04.044Z,0.9
2018-03-07T01:15:02.276Z,0.9
2018-03-07T01:30:02.619Z,1.1
2018-03-07T01:45:02.965Z,1.4
2018-03-07T02:00:02.298Z,1.2
2018-03-07T02:15:02.638Z,1
2018-03-07T02:30:03.010Z,1.1
2018-03-07T02:45:02.279Z,1.1
2018-03-07T03:00:02.518Z,1
2018-03-07T03:15:02.804Z,1.1
2018-03-07T03:30:03.117Z,0.9
2018-03-07T03:45:02.427Z,0.9
2018-03-07T04:00:02.755Z,0.8
2018-03-07T04:15:03.071Z,0.8
2018-03-07T04:30:02.409Z,0.9
2018-03-07T04:45:02.687Z,1
2018-03-07T05:00:02.905Z,1.2
2018-03-07T05:15:03.204Z,1.5
2018-03-07T05:30:02.625Z,1.5
2018-03-07T05:45:02.894Z,1.8
2018-03-07T06:00:03.284Z,1.8
2018-03-07T06:15:02.569Z,1.9
2018-03-07T06:30:03.024Z,2.2
2018-03-07T06:45:02.295Z,2.5
2018-03-07T07:00:02.697Z,2.8
2018-03-07T07:15:02.938Z,3.1
2018-03-07T07:30:02.448Z,3.4
2018-03-07T07:45:03.134Z,3.7
2018-03-07T08:00:02.489Z,4
2018-03-07T08:15:02.731Z,4.9
2018-03-07T08:30:03.090Z,6.1
2018-03-07T08:45:02.468Z,6.6
2018-03-07T09:00:02.821Z,6.5
2018-03-07T09:15:03.229Z,7.6
2018-03-07T09:30:02.672Z,7.4
2018-03-07T09:45:02.906Z,7.4
2018-03-07T10:00:03.240Z,7.7
2018-03-07T10:15:02.556Z,8
2018-03-07T10:30:02.972Z,8.6
2018-03-07T10:45:02.281Z,8.8
2018-03-07T11:00:02.544Z,9.4
2018-03-07T11:15:02.875Z,10.1
2018-03-07T11:30:02.930Z,9.8
2018-03-07T11:45:03.252Z,9.1
2018-03-07T12:00:02.617Z,9
2018-03-07T12:15:02.959Z,8.9
2018-03-07T12:30:02.307Z,10.2
2018-03-07T12:45:02.580Z,9.1
2018-03-07T13:00:03.015Z,9.4
2018-03-07T13:15:02.368Z,9.3
2018-03-07T13:30:02.705Z,9
2018-03-07T13:45:03.035Z,9.2
2018-03-07T14:00:02.431Z,9.6
2018-03-07T14:15:02.780Z,9.7
2018-03-07T14:30:03.229Z,9.3
2018-03-07T14:45:02.517Z,9.1
2018-03-07T15:00:02.920Z,9
2018-03-07T15:15:03.140Z,8.8
2018-03-07T15:30:02.481Z,8.8
2018-03-07T15:45:02.741Z,8.8
2018-03-07T16:00:03.087Z,8.3
2018-03-07T16:15:02.331Z,8.1
2018-03-07T16:30:02.627Z,7.8
2018-03-07T16:45:02.863Z,7.4
2018-03-07T17:00:03.138Z,7.2
2018-03-07T17:15:02.411Z,7.1
2018-03-07T17:30:02.728Z,6.8
2018-03-07T17:45:02.920Z,6.6
2018-03-07T18:00:02.201Z,6.2
2018-03-07T18:15:02.436Z,6.1
2018-03-07T18:30:02.773Z,5.8
2018-03-07T18:45:03.004Z,5.9
2018-03-07T19:00:02.292Z,5.4
2018-03-07T19:15:02.590Z,5.2
2018-03-07T19:30:02.907Z,5
2018-03-07T19:45:03.129Z,4.8
2018-03-07T20:00:02.392Z,4.4
2018-03-07T20:15:02.667Z,4.2
2018-03-07T20:30:03.096Z,4.1
2018-03-07T20:45:02.347Z,3.7
2018-03-07T21:00:02.603Z,3.1
2018-03-07T21:15:02.827Z,2.8
2018-03-07T21:30:03.137Z,2
2018-03-07T21:45:02.395Z,2.4
2018-03-07T22:00:02.712Z,2.2
2018-03-07T22:15:02.932Z,2.9
2018-03-07T22:30:02.292Z,2.9
2018-03-07T22:45:02.571Z,3.1
2018-03-07T23:00:02.826Z,3.2
2018-03-07T23:15:03.103Z,3.3
2018-03-07T23:30:02.515Z,3.3
2018-03-07T23:45:02.937Z,3.1
